Time;durP1;ratioP1;P1;durP2;ratioP2;P2;SDS_P1;SDS_P2;PMS_P1;PMS_P2;Temp;Humidity;BMP_temperature;BMP_pressure;BME280_temperature;BME280_humidity;BME280_pressure;Samples;Min_cycle;Max_cycle;Signal;HPM_P1;HPM_P2
2021/03/14 00:00:45;;;;;;;1.63;0.87;;;;;;;;;;5117546;28;20222;-68
2021/03/14 00:03:13;;;;;;;5.40;0.77;;;;;;;;;;5106691;28;20210;-68
2021/03/14 00:05:41;;;;;;;4.40;0.63;;;;;;;;;;5109218;28;20224;-68
2021/03/14 00:08:10;;;;;;;0.90;0.33;;;;;;;;;;5115337;28;20231;-68
2021/03/14 00:10:39;;;;;;;0.53;0.53;;;;;;;;;;5116580;28;20260;-68
2021/03/14 00:13:10;;;;;;;1.83;0.47;;;;;;;;;;5117777;28;20288;-68
2021/03/14 00:15:37;;;;;;;1.70;0.40;;;;;;;;;;5117553;28;20299;-67
2021/03/14 00:18:07;;;;;;;0.43;0.40;;;;;;;;;;5118377;28;20234;-66
2021/03/14 00:20:34;;;;;;;1.37;0.40;;;;;;;;;;5117803;28;20197;-67
2021/03/14 00:23:01;;;;;;;0.97;0.33;;;;;;;;;;5118361;28;20243;-67
2021/03/14 00:25:29;;;;;;;0.83;0.50;;;;;;;;;;5117387;28;20256;-67
2021/03/14 00:27:56;;;;;;;0.73;0.30;;;;;;;;;;5117316;28;20768;-68
2021/03/14 00:30:25;;;;;;;0.57;0.50;;;;;;;;;;5115996;28;20217;-68
2021/03/14 00:32:52;;;;;;;1.30;0.37;;;;;;;;;;5110884;28;20212;-68
2021/03/14 00:35:20;;;;;;;1.30;0.30;;;;;;;;;;5117255;28;20220;-68
2021/03/14 00:37:47;;;;;;;0.53;0.47;;;;;;;;;;5118552;28;20272;-68
2021/03/14 00:40:19;;;;;;;1.00;0.40;;;;;;;;;;5112606;28;20201;-68
2021/03/14 00:42:47;;;;;;;1.17;0.40;;;;;;;;;;5098295;28;20236;-68
2021/03/14 00:45:30;;;;;;;0.20;0.20;;;;;;;;;;5115146;28;20233;-68
2021/03/14 00:47:57;;;;;;;0.50;0.50;;;;;;;;;;5108623;28;20205;-68
2021/03/14 00:50:25;;;;;;;0.40;0.40;;;;;;;;;;5098124;28;20700;-68
2021/03/14 00:52:52;;;;;;;0.30;0.30;;;;;;;;;;5109453;28;20274;-68
2021/03/14 00:55:19;;;;;;;0.50;0.50;;;;;;;;;;5100407;28;20225;-68
2021/03/14 00:57:47;;;;;;;1.33;1.00;;;;;;;;;;5117919;28;20664;-68
2021/03/14 01:00:15;;;;;;;0.40;0.40;;;;;;;;;;5112042;28;20280;-68
2021/03/14 01:02:42;;;;;;;1.23;0.87;;;;;;;;;;5108064;28;20787;-68
2021/03/14 01:05:10;;;;;;;0.40;0.40;;;;;;;;;;5106640;28;20252;-68
2021/03/14 01:07:37;;;;;;;0.40;0.40;;;;;;;;;;5101237;28;20688;-68
2021/03/14 01:10:05;;;;;;;0.53;0.30;;;;;;;;;;5114604;28;20216;-68
2021/03/14 01:12:36;;;;;;;1.23;0.63;;;;;;;;;;5115099;28;20608;-69
2021/03/14 01:15:04;;;;;;;0.27;0.27;;;;;;;;;;5114102;28;20288;-69
2021/03/14 01:17:31;;;;;;;0.20;0.20;;;;;;;;;;5119892;28;20201;-68
2021/03/14 01:19:58;;;;;;;0.20;0.20;;;;;;;;;;5121727;28;20606;-68
2021/03/14 01:22:25;;;;;;;0.73;0.43;;;;;;;;;;5116193;28;20625;-68
2021/03/14 01:24:54;;;;;;;0.93;0.40;;;;;;;;;;5101637;28;20592;-68
2021/03/14 01:27:22;;;;;;;0.40;0.40;;;;;;;;;;5113990;28;20201;-68
2021/03/14 01:29:49;;;;;;;0.60;0.30;;;;;;;;;;5101288;28;20205;-68
2021/03/14 01:32:17;;;;;;;1.97;0.80;;;;;;;;;;5116996;28;20656;-68
2021/03/14 01:34:48;;;;;;;0.60;0.60;;;;;;;;;;5114512;28;20212;-68
2021/03/14 01:37:15;;;;;;;0.70;0.70;;;;;;;;;;5120752;28;20239;-68
2021/03/14 01:39:42;;;;;;;0.30;0.30;;;;;;;;;;5120642;28;20235;-69
2021/03/14 01:42:09;;;;;;;0.40;0.40;;;;;;;;;;5121313;28;20262;-68
2021/03/14 01:44:36;;;;;;;0.40;0.40;;;;;;;;;;5120157;28;20252;-68
2021/03/14 01:47:04;;;;;;;0.70;0.40;;;;;;;;;;5119950;28;20208;-68
2021/03/14 01:49:32;;;;;;;0.40;0.40;;;;;;;;;;5121473;27;20209;-68
2021/03/14 01:51:59;;;;;;;1.60;0.50;;;;;;;;;;5119847;28;20778;-68
2021/03/14 01:54:26;;;;;;;0.40;0.40;;;;;;;;;;5121316;28;20258;-68
2021/03/14 01:56:53;;;;;;;0.30;0.30;;;;;;;;;;5120014;28;20265;-68
2021/03/14 01:59:20;;;;;;;1.03;0.50;;;;;;;;;;5120010;28;20209;-68
2021/03/14 02:01:47;;;;;;;0.43;0.30;;;;;;;;;;5118391;27;20200;-68
2021/03/14 02:04:15;;;;;;;0.40;0.40;;;;;;;;;;5121010;28;20225;-68
2021/03/14 02:06:43;;;;;;;0.73;0.40;;;;;;;;;;5120745;28;20292;-68
2021/03/14 02:09:10;;;;;;;0.40;0.40;;;;;;;;;;5119206;28;20283;-68
2021/03/14 02:11:38;;;;;;;0.70;0.40;;;;;;;;;;5120931;28;20311;-68
2021/03/14 02:14:06;;;;;;;1.13;0.37;;;;;;;;;;5120164;28;20229;-68
2021/03/14 02:16:34;;;;;;;0.90;0.50;;;;;;;;;;5119919;28;20201;-68
2021/03/14 02:19:02;;;;;;;2.03;0.60;;;;;;;;;;5119982;28;20201;-69
2021/03/14 02:21:31;;;;;;;2.07;0.50;;;;;;;;;;5112019;28;20283;-68
2021/03/14 02:24:00;;;;;;;0.40;0.30;;;;;;;;;;5115900;28;20245;-68
2021/03/14 02:26:29;;;;;;;0.50;0.50;;;;;;;;;;5100192;28;20201;-68
2021/03/14 02:28:56;;;;;;;0.33;0.33;;;;;;;;;;5112435;28;20302;-69
2021/03/14 02:31:24;;;;;;;0.50;0.50;;;;;;;;;;5106928;28;20258;-69
2021/03/14 02:33:54;;;;;;;0.50;0.30;;;;;;;;;;5119586;28;20197;-68
2021/03/14 02:36:22;;;;;;;1.07;0.50;;;;;;;;;;5118618;28;20201;-68
2021/03/14 02:38:49;;;;;;;1.33;0.70;;;;;;;;;;5119301;28;20281;-68
2021/03/14 02:41:17;;;;;;;0.37;0.30;;;;;;;;;;5119800;28;20229;-69
2021/03/14 02:43:45;;;;;;;1.73;0.40;;;;;;;;;;5119033;28;20261;-68
2021/03/14 02:46:13;;;;;;;1.13;0.40;;;;;;;;;;5119426;28;20259;-68
2021/03/14 02:48:41;;;;;;;0.60;0.60;;;;;;;;;;5106315;28;20205;-69
2021/03/14 02:51:09;;;;;;;0.40;0.30;;;;;;;;;;5120240;28;20641;-69
2021/03/14 02:53:37;;;;;;;0.77;0.57;;;;;;;;;;5118778;28;20240;-69
2021/03/14 02:56:04;;;;;;;0.50;0.50;;;;;;;;;;5119852;28;20358;-68
2021/03/14 02:58:32;;;;;;;0.40;0.40;;;;;;;;;;5118879;28;20236;-69
2021/03/14 03:00:59;;;;;;;1.33;0.60;;;;;;;;;;5115146;28;20193;-68
2021/03/14 03:03:27;;;;;;;0.47;0.37;;;;;;;;;;5118879;28;20280;-68
2021/03/14 03:05:57;;;;;;;0.43;0.33;;;;;;;;;;5117698;27;20683;-68
2021/03/14 03:08:24;;;;;;;1.50;0.30;;;;;;;;;;5119285;27;20204;-68
2021/03/14 03:10:53;;;;;;;0.53;0.50;;;;;;;;;;5117564;28;20629;-68
2021/03/14 03:13:20;;;;;;;0.30;0.30;;;;;;;;;;5118552;28;20230;-68
2021/03/14 03:15:48;;;;;;;1.33;0.47;;;;;;;;;;5118095;28;20266;-68
2021/03/14 03:18:15;;;;;;;0.50;0.50;;;;;;;;;;5108152;28;20232;-68
2021/03/14 03:20:43;;;;;;;0.30;0.30;;;;;;;;;;5101681;28;20212;-67
2021/03/14 03:23:11;;;;;;;0.30;0.30;;;;;;;;;;5119327;28;20239;-68
2021/03/14 03:25:38;;;;;;;0.57;0.50;;;;;;;;;;5117734;28;20224;-68
2021/03/14 03:28:05;;;;;;;0.47;0.33;;;;;;;;;;5115445;28;20677;-67
2021/03/14 03:30:33;;;;;;;1.33;0.33;;;;;;;;;;5118028;28;20659;-68
2021/03/14 03:33:00;;;;;;;0.87;0.40;;;;;;;;;;5115585;28;20244;-68
2021/03/14 03:35:30;;;;;;;0.40;0.40;;;;;;;;;;5110263;28;20264;-68
2021/03/14 03:37:58;;;;;;;1.40;0.50;;;;;;;;;;5118070;28;20239;-68
2021/03/14 03:40:26;;;;;;;0.40;0.40;;;;;;;;;;5119432;28;20215;-68
2021/03/14 03:42:57;;;;;;;4.07;1.27;;;;;;;;;;5118076;28;20288;-68
2021/03/14 03:45:26;;;;;;;0.47;0.47;;;;;;;;;;5111946;28;20230;-68
2021/03/14 03:47:53;;;;;;;0.23;0.23;;;;;;;;;;5098231;28;20228;-68
2021/03/14 03:50:30;;;;;;;1.57;0.90;;;;;;;;;;5100680;28;20221;-68
2021/03/14 03:52:58;;;;;;;0.33;0.33;;;;;;;;;;5119029;28;20230;-68
2021/03/14 03:55:26;;;;;;;0.57;0.50;;;;;;;;;;5117990;28;20263;-68
2021/03/14 03:57:54;;;;;;;0.77;0.40;;;;;;;;;;5118854;28;20233;-68
2021/03/14 04:00:21;;;;;;;0.57;0.57;;;;;;;;;;5116816;28;20492;-68
2021/03/14 04:02:49;;;;;;;0.40;0.40;;;;;;;;;;5118227;28;20447;-68
2021/03/14 04:05:18;;;;;;;0.50;0.50;;;;;;;;;;5117881;28;20480;-68
2021/03/14 04:07:47;;;;;;;0.63;0.50;;;;;;;;;;5118545;28;20877;-68
2021/03/14 04:10:17;;;;;;;1.73;0.47;;;;;;;;;;5116924;28;20942;-68
2021/03/14 04:12:46;;;;;;;1.13;0.27;;;;;;;;;;5117770;28;20511;-68
2021/03/14 04:15:17;;;;;;;1.37;0.43;;;;;;;;;;5118506;28;20981;-68
2021/03/14 04:17:45;;;;;;;0.40;0.40;;;;;;;;;;5117594;28;20197;-68
2021/03/14 04:20:14;;;;;;;1.70;0.50;;;;;;;;;;5118583;28;20254;-68
2021/03/14 04:22:43;;;;;;;0.30;0.30;;;;;;;;;;5111481;28;20271;-68
2021/03/14 04:25:11;;;;;;;0.40;0.40;;;;;;;;;;5098529;28;20233;-67
2021/03/14 04:27:40;;;;;;;0.90;0.30;;;;;;;;;;5113933;28;20271;-68
2021/03/14 04:30:07;;;;;;;0.73;0.57;;;;;;;;;;5118280;28;20209;-68
2021/03/14 04:32:35;;;;;;;1.77;0.60;;;;;;;;;;5116201;28;20204;-68
2021/03/14 04:35:05;;;;;;;0.73;0.53;;;;;;;;;;5111448;28;20256;-68
2021/03/14 04:37:32;;;;;;;0.80;0.40;;;;;;;;;;5116979;28;20276;-68
2021/03/14 04:39:59;;;;;;;2.20;0.60;;;;;;;;;;5118363;28;20240;-68
2021/03/14 04:42:26;;;;;;;0.37;0.37;;;;;;;;;;5117085;28;20219;-68
2021/03/14 04:44:55;;;;;;;2.90;0.50;;;;;;;;;;5120237;28;20267;-68
2021/03/14 04:47:23;;;;;;;1.63;0.70;;;;;;;;;;5119089;28;20200;-68
2021/03/14 04:49:50;;;;;;;1.30;0.50;;;;;;;;;;5122480;28;20205;-68
2021/03/14 04:52:18;;;;;;;1.63;0.57;;;;;;;;;;5121668;28;20308;-68
2021/03/14 04:54:47;;;;;;;0.60;0.50;;;;;;;;;;5122426;28;20227;-68
2021/03/14 04:57:15;;;;;;;1.93;0.47;;;;;;;;;;5118957;28;20264;-68
2021/03/14 04:59:44;;;;;;;1.40;0.70;;;;;;;;;;5114032;28;20633;-68
2021/03/14 05:02:12;;;;;;;2.10;0.47;;;;;;;;;;5114982;28;20224;-68
2021/03/14 05:04:40;;;;;;;0.63;0.63;;;;;;;;;;5122249;28;20252;-68
2021/03/14 05:07:08;;;;;;;0.67;0.50;;;;;;;;;;5121828;28;20211;-68
2021/03/14 05:09:37;;;;;;;1.93;0.80;;;;;;;;;;5120546;28;20260;-68
2021/03/14 05:12:05;;;;;;;0.50;0.50;;;;;;;;;;5112606;28;20640;-68
2021/03/14 05:14:32;;;;;;;0.93;0.60;;;;;;;;;;5118561;28;20640;-68
2021/03/14 05:16:59;;;;;;;1.30;0.60;;;;;;;;;;5120598;28;20229;-68
2021/03/14 05:19:28;;;;;;;0.60;0.60;;;;;;;;;;5120633;28;21250;-68
2021/03/14 05:21:57;;;;;;;0.67;0.60;;;;;;;;;;5101273;28;20255;-68
2021/03/14 05:24:24;;;;;;;0.90;0.47;;;;;;;;;;5101357;28;20225;-68
2021/03/14 05:26:52;;;;;;;0.60;0.60;;;;;;;;;;5118614;28;20268;-67
2021/03/14 05:29:19;;;;;;;1.07;0.70;;;;;;;;;;5121323;28;20239;-68
2021/03/14 05:31:47;;;;;;;1.07;0.67;;;;;;;;;;5120328;28;20259;-68
2021/03/14 05:34:16;;;;;;;0.73;0.60;;;;;;;;;;5108954;28;20201;-67
2021/03/14 05:36:44;;;;;;;1.60;0.90;;;;;;;;;;5120020;28;20254;-68
2021/03/14 05:39:11;;;;;;;0.70;0.70;;;;;;;;;;5120313;28;20196;-68
2021/03/14 05:41:40;;;;;;;0.60;0.60;;;;;;;;;;5120773;28;20221;-68
2021/03/14 05:44:08;;;;;;;0.90;0.50;;;;;;;;;;5102588;28;20210;-68
2021/03/14 05:46:35;;;;;;;0.60;0.60;;;;;;;;;;5113085;28;20207;-68
2021/03/14 05:49:03;;;;;;;1.37;0.70;;;;;;;;;;5121151;28;20941;-68
2021/03/14 05:51:31;;;;;;;1.20;1.10;;;;;;;;;;5120467;28;20216;-68
2021/03/14 05:54:00;;;;;;;0.70;0.60;;;;;;;;;;5121357;28;20243;-68
2021/03/14 05:56:28;;;;;;;0.90;0.90;;;;;;;;;;5119778;28;20477;-68
2021/03/14 05:58:56;;;;;;;0.70;0.70;;;;;;;;;;5105562;28;20536;-67
2021/03/14 06:01:25;;;;;;;0.70;0.53;;;;;;;;;;5118521;28;20515;-67
2021/03/14 06:03:53;;;;;;;3.30;0.70;;;;;;;;;;5119869;28;20958;-67
2021/03/14 06:06:20;;;;;;;2.53;0.97;;;;;;;;;;5120195;28;21042;-68
2021/03/14 06:08:47;;;;;;;0.50;0.50;;;;;;;;;;5120725;28;20537;-68
2021/03/14 06:11:15;;;;;;;2.07;0.97;;;;;;;;;;5118737;28;20485;-68
2021/03/14 06:13:42;;;;;;;2.70;0.90;;;;;;;;;;5120875;28;20458;-67
2021/03/14 06:16:09;;;;;;;2.10;0.60;;;;;;;;;;5118885;28;20503;-67
2021/03/14 06:18:36;;;;;;;2.03;0.97;;;;;;;;;;5112238;28;20436;-68
2021/03/14 06:21:04;;;;;;;1.23;1.17;;;;;;;;;;5105929;28;20219;-67
2021/03/14 06:23:31;;;;;;;1.90;0.90;;;;;;;;;;5120726;28;20296;-68
2021/03/14 06:25:58;;;;;;;2.43;0.87;;;;;;;;;;5118927;28;20633;-68
2021/03/14 06:28:33;;;;;;;3.03;1.00;;;;;;;;;;5120216;28;20241;-68
2021/03/14 06:31:16;;;;;;;3.90;1.20;;;;;;;;;;5118661;28;20278;-68
2021/03/14 06:33:44;;;;;;;2.00;1.00;;;;;;;;;;5111657;28;20558;-68
2021/03/14 06:36:14;;;;;;;2.40;0.70;;;;;;;;;;5116244;28;20223;-68
2021/03/14 06:38:42;;;;;;;1.90;0.80;;;;;;;;;;5120563;28;20280;-68
2021/03/14 06:41:13;;;;;;;4.03;1.20;;;;;;;;;;5121068;28;20288;-68
2021/03/14 06:43:43;;;;;;;4.07;1.20;;;;;;;;;;5119824;28;20203;-68
2021/03/14 06:46:23;;;;;;;4.40;0.97;;;;;;;;;;5119154;28;20263;-68
2021/03/14 06:49:07;;;;;;;3.47;0.90;;;;;;;;;;5109907;28;20680;-68
2021/03/14 06:51:35;;;;;;;2.60;1.20;;;;;;;;;;5099461;28;20272;-68
2021/03/14 06:54:29;;;;;;;5.73;1.10;;;;;;;;;;5099196;28;20632;-68
2021/03/14 06:56:59;;;;;;;1.83;0.70;;;;;;;;;;5076270;28;20605;-68
2021/03/14 06:59:27;;;;;;;2.97;0.70;;;;;;;;;;5119058;28;20205;-69
2021/03/14 07:01:58;;;;;;;2.93;0.73;;;;;;;;;;5115925;28;20197;-68
2021/03/14 07:04:36;;;;;;;2.00;1.10;;;;;;;;;;5112604;28;20235;-68
2021/03/14 07:07:03;;;;;;;3.23;0.90;;;;;;;;;;5117517;28;20232;-68
2021/03/14 07:09:30;;;;;;;6.10;0.97;;;;;;;;;;5117850;28;20655;-69
2021/03/14 07:11:57;;;;;;;3.00;0.97;;;;;;;;;;5117729;28;20280;-68
2021/03/14 07:14:26;;;;;;;5.17;0.77;;;;;;;;;;5119634;28;20316;-69
2021/03/14 07:16:54;;;;;;;6.13;1.20;;;;;;;;;;5117805;28;20284;-68
2021/03/14 07:19:23;;;;;;;2.60;1.00;;;;;;;;;;5118923;28;20208;-69
2021/03/14 07:22:00;;;;;;;3.07;0.87;;;;;;;;;;5116108;27;20281;-70
2021/03/14 07:24:28;;;;;;;4.67;1.20;;;;;;;;;;5118572;28;20225;-69
2021/03/14 07:26:56;;;;;;;3.40;1.00;;;;;;;;;;5117565;28;20208;-71
2021/03/14 07:29:24;;;;;;;3.20;1.10;;;;;;;;;;5111086;28;20292;-71
2021/03/14 07:31:51;;;;;;;3.70;0.90;;;;;;;;;;5112074;28;20248;-70
2021/03/14 07:34:20;;;;;;;4.57;1.23;;;;;;;;;;5108177;28;20232;-71
2021/03/14 07:36:48;;;;;;;3.97;0.80;;;;;;;;;;5115033;27;20283;-69
2021/03/14 07:39:15;;;;;;;1.33;0.73;;;;;;;;;;5114219;28;20674;-70
2021/03/14 07:41:43;;;;;;;2.10;1.03;;;;;;;;;;5100974;28;20234;-71
2021/03/14 07:44:10;;;;;;;6.13;1.17;;;;;;;;;;5098606;28;20268;-71
2021/03/14 07:46:40;;;;;;;2.30;1.03;;;;;;;;;;5106207;28;20297;-69
2021/03/14 07:49:07;;;;;;;3.50;1.17;;;;;;;;;;5098743;28;20237;-71
2021/03/14 07:51:37;;;;;;;5.23;1.23;;;;;;;;;;5098576;28;20225;-71
2021/03/14 07:54:05;;;;;;;4.53;1.30;;;;;;;;;;5098799;28;20206;-70
2021/03/14 07:56:34;;;;;;;5.20;1.20;;;;;;;;;;5099730;28;20202;-69
2021/03/14 07:59:01;;;;;;;3.30;1.00;;;;;;;;;;5118637;28;20211;-70
2021/03/14 08:01:31;;;;;;;2.40;1.10;;;;;;;;;;5110391;28;20657;-69
2021/03/14 08:03:59;;;;;;;3.70;1.40;;;;;;;;;;5096459;28;20229;-69
2021/03/14 08:06:53;;;;;;;2.07;1.00;;;;;;;;;;5097002;28;20246;-69
2021/03/14 08:09:38;;;;;;;6.33;1.80;;;;;;;;;;5072487;28;20217;-72
2021/03/14 08:12:20;;;;;;;4.10;1.10;;;;;;;;;;5108626;28;20238;-72
2021/03/14 08:14:48;;;;;;;3.10;1.17;;;;;;;;;;5106553;28;20232;-72
2021/03/14 08:17:15;;;;;;;2.90;1.27;;;;;;;;;;5110302;28;20276;-73
2021/03/14 08:19:43;;;;;;;2.73;1.10;;;;;;;;;;5107002;28;20201;-73
2021/03/14 08:22:41;;;;;;;4.77;1.23;;;;;;;;;;5109512;28;20197;-73
2021/03/14 08:25:25;;;;;;;6.10;1.50;;;;;;;;;;5107338;28;20271;-73
2021/03/14 08:27:58;;;;;;;7.60;1.23;;;;;;;;;;5108286;28;20719;-71
2021/03/14 08:30:45;;;;;;;5.60;1.10;;;;;;;;;;5108196;28;20616;-68
2021/03/14 08:33:32;;;;;;;5.60;1.30;;;;;;;;;;5110210;28;20249;-71
2021/03/14 08:36:00;;;;;;;5.10;1.13;;;;;;;;;;5107229;28;20270;-71
2021/03/14 08:38:28;;;;;;;10.37;1.20;;;;;;;;;;5107681;28;20220;-71
2021/03/14 08:41:13;;;;;;;6.13;2.50;;;;;;;;;;5107195;28;20696;-71
2021/03/14 08:43:41;;;;;;;6.00;1.93;;;;;;;;;;5106719;28;20211;-71
2021/03/14 08:46:08;;;;;;;5.00;1.17;;;;;;;;;;5109952;28;20257;-71
2021/03/14 08:48:36;;;;;;;4.70;1.30;;;;;;;;;;5114502;28;20202;-71
2021/03/14 08:51:04;;;;;;;6.43;1.60;;;;;;;;;;5118741;28;20228;-71
2021/03/14 08:53:32;;;;;;;5.50;1.30;;;;;;;;;;5122750;27;20196;-69
2021/03/14 08:55:59;;;;;;;4.80;1.30;;;;;;;;;;5123859;28;20216;-70
2021/03/14 08:58:27;;;;;;;8.23;1.97;;;;;;;;;;5132673;27;20246;-68
2021/03/14 09:01:14;;;;;;;4.37;1.60;;;;;;;;;;5119915;28;20665;-70
2021/03/14 09:03:43;;;;;;;7.37;1.30;;;;;;;;;;5115964;28;20380;-70
2021/03/14 09:06:24;;;;;;;5.53;1.20;;;;;;;;;;5128578;28;20220;-70
2021/03/14 09:08:59;;;;;;;4.33;1.30;;;;;;;;;;5126886;28;20702;-69
2021/03/14 09:11:39;;;;;;;3.30;1.50;;;;;;;;;;5128371;27;20293;-71
2021/03/14 09:14:22;;;;;;;3.97;1.30;;;;;;;;;;5105666;28;20726;-70
2021/03/14 09:16:49;;;;;;;2.10;1.30;;;;;;;;;;5115681;28;20398;-69
2021/03/14 09:19:21;;;;;;;6.33;1.50;;;;;;;;;;5116692;28;20232;-69
2021/03/14 09:21:49;;;;;;;6.00;1.47;;;;;;;;;;5110911;28;20229;-69
2021/03/14 09:24:26;;;;;;;2.20;1.13;;;;;;;;;;5097253;28;20775;-69
2021/03/14 09:26:56;;;;;;;2.63;1.30;;;;;;;;;;5113085;28;20193;-69
2021/03/14 09:29:36;;;;;;;4.10;1.13;;;;;;;;;;5115229;28;20237;-70
2021/03/14 09:32:04;;;;;;;1.60;0.87;;;;;;;;;;5118706;28;20228;-69
2021/03/14 09:34:32;;;;;;;5.20;1.40;;;;;;;;;;5113124;28;20299;-71
2021/03/14 09:36:59;;;;;;;4.67;1.47;;;;;;;;;;5118058;28;20630;-70
2021/03/14 09:39:26;;;;;;;5.50;1.47;;;;;;;;;;5119251;28;20277;-70
2021/03/14 09:41:57;;;;;;;5.50;1.33;;;;;;;;;;5115189;28;20243;-71
2021/03/14 09:44:24;;;;;;;5.00;1.17;;;;;;;;;;5117245;28;20304;-70
2021/03/14 09:46:52;;;;;;;6.10;2.13;;;;;;;;;;5114246;28;20278;-72
2021/03/14 09:49:19;;;;;;;4.73;1.17;;;;;;;;;;5118968;28;20209;-71
2021/03/14 09:51:51;;;;;;;4.23;1.30;;;;;;;;;;5116815;28;20225;-69
2021/03/14 09:54:19;;;;;;;7.10;1.87;;;;;;;;;;5116277;28;20228;-70
2021/03/14 09:56:52;;;;;;;6.80;1.40;;;;;;;;;;5112781;28;20210;-72
2021/03/14 09:59:21;;;;;;;8.20;1.50;;;;;;;;;;5113058;28;20276;-69
2021/03/14 10:01:48;;;;;;;4.77;1.70;;;;;;;;;;5108621;28;20194;-70
2021/03/14 10:04:15;;;;;;;5.33;1.07;;;;;;;;;;5110742;28;20220;-71
2021/03/14 10:06:43;;;;;;;14.10;1.87;;;;;;;;;;5113100;28;20207;-72
2021/03/14 10:09:21;;;;;;;4.17;1.43;;;;;;;;;;5115160;28;20269;-72
2021/03/14 10:11:49;;;;;;;2.33;1.03;;;;;;;;;;5119097;28;20242;-71
2021/03/14 10:14:17;;;;;;;3.13;1.50;;;;;;;;;;5121446;28;20700;-70
2021/03/14 10:16:44;;;;;;;7.23;1.33;;;;;;;;;;5119564;28;20207;-72
2021/03/14 10:19:12;;;;;;;2.93;1.50;;;;;;;;;;5121056;28;20231;-71
2021/03/14 10:21:43;;;;;;;6.20;1.50;;;;;;;;;;5119741;28;20288;-72
2021/03/14 10:24:18;;;;;;;4.57;1.67;;;;;;;;;;5120669;28;20240;-71
2021/03/14 10:26:56;;;;;;;8.97;2.07;;;;;;;;;;5117222;28;20215;-70
2021/03/14 10:29:27;;;;;;;4.63;1.50;;;;;;;;;;5100731;28;20233;-71
2021/03/14 10:31:55;;;;;;;6.63;1.47;;;;;;;;;;5119388;27;20251;-71
2021/03/14 10:34:22;;;;;;;4.07;1.50;;;;;;;;;;5109402;28;20216;-68
2021/03/14 10:36:50;;;;;;;8.57;1.43;;;;;;;;;;5109494;28;20239;-67
2021/03/14 10:39:23;;;;;;;5.57;1.40;;;;;;;;;;5102243;28;20224;-70
2021/03/14 10:41:50;;;;;;;3.03;1.37;;;;;;;;;;5115828;28;20260;-67
2021/03/14 10:44:22;;;;;;;8.73;2.33;;;;;;;;;;5119969;28;20225;-68
2021/03/14 10:46:50;;;;;;;6.70;1.67;;;;;;;;;;5112713;28;20201;-71
2021/03/14 10:49:20;;;;;;;9.13;2.13;;;;;;;;;;5113225;28;20205;-71
2021/03/14 10:51:49;;;;;;;4.47;1.67;;;;;;;;;;5116714;28;20229;-72
2021/03/14 10:54:17;;;;;;;3.40;1.10;;;;;;;;;;5116094;28;20714;-70
2021/03/14 10:56:45;;;;;;;5.90;1.10;;;;;;;;;;5117037;28;20225;-72
2021/03/14 10:59:23;;;;;;;6.93;1.40;;;;;;;;;;5116833;28;20197;-71
2021/03/14 11:01:53;;;;;;;5.50;1.37;;;;;;;;;;5114757;28;20201;-71
2021/03/14 11:04:26;;;;;;;5.13;1.47;;;;;;;;;;5105905;28;20270;-70
2021/03/14 11:06:53;;;;;;;11.37;1.67;;;;;;;;;;5119603;28;20213;-71
2021/03/14 11:09:20;;;;;;;7.10;1.53;;;;;;;;;;5119038;28;20232;-72
2021/03/14 11:11:48;;;;;;;3.37;1.37;;;;;;;;;;5118522;27;20217;-71
2021/03/14 11:14:26;;;;;;;6.93;1.83;;;;;;;;;;5114951;28;20229;-72
2021/03/14 11:17:03;;;;;;;6.53;1.63;;;;;;;;;;5114598;28;20604;-72
2021/03/14 11:19:30;;;;;;;6.60;1.50;;;;;;;;;;5112936;28;20229;-72
2021/03/14 11:21:57;;;;;;;5.80;1.83;;;;;;;;;;5117425;28;20246;-70
2021/03/14 11:24:24;;;;;;;5.70;1.47;;;;;;;;;;5114987;28;20247;-71
2021/03/14 11:26:51;;;;;;;6.40;1.83;;;;;;;;;;5113329;28;20293;-71
2021/03/14 11:29:20;;;;;;;5.07;1.40;;;;;;;;;;5109651;28;20263;-71
2021/03/14 11:31:48;;;;;;;5.37;2.10;;;;;;;;;;5112032;28;20655;-72
2021/03/14 11:34:15;;;;;;;7.87;1.70;;;;;;;;;;5113595;28;20228;-71
2021/03/14 11:36:42;;;;;;;6.03;1.83;;;;;;;;;;5111902;28;20280;-71
2021/03/14 11:39:10;;;;;;;4.47;1.20;;;;;;;;;;5112204;27;20205;-70
2021/03/14 11:41:37;;;;;;;3.03;1.73;;;;;;;;;;5110320;28;20245;-70
2021/03/14 11:44:05;;;;;;;6.77;1.60;;;;;;;;;;5111081;28;20755;-71
2021/03/14 11:46:32;;;;;;;5.07;1.33;;;;;;;;;;5114041;28;20200;-72
2021/03/14 11:49:01;;;;;;;5.00;1.57;;;;;;;;;;5109806;28;20197;-72
2021/03/14 11:51:28;;;;;;;5.10;1.20;;;;;;;;;;5105110;28;20236;-72
2021/03/14 11:53:56;;;;;;;7.27;1.43;;;;;;;;;;5117476;28;20205;-75
2021/03/14 11:56:23;;;;;;;7.20;1.30;;;;;;;;;;5113776;28;20645;-74
2021/03/14 11:58:50;;;;;;;3.07;1.10;;;;;;;;;;5118156;28;20617;-74
2021/03/14 12:01:17;;;;;;;6.60;1.67;;;;;;;;;;5116911;28;20292;-74
2021/03/14 12:03:44;;;;;;;3.97;1.20;;;;;;;;;;5110738;28;20197;-73
2021/03/14 12:06:13;;;;;;;2.57;1.33;;;;;;;;;;5116459;28;20686;-74
2021/03/14 12:08:40;;;;;;;13.30;2.43;;;;;;;;;;5118272;28;20287;-73
2021/03/14 12:11:07;;;;;;;3.07;1.40;;;;;;;;;;5116460;28;20266;-73
2021/03/14 12:13:34;;;;;;;4.03;1.10;;;;;;;;;;5118292;28;20221;-73
2021/03/14 12:16:02;;;;;;;3.70;1.43;;;;;;;;;;5115572;28;20225;-73
2021/03/14 12:18:30;;;;;;;6.23;1.67;;;;;;;;;;5117913;28;20307;-73
2021/03/14 12:20:57;;;;;;;3.97;1.57;;;;;;;;;;5118401;28;20205;-73
2021/03/14 12:23:25;;;;;;;5.73;2.13;;;;;;;;;;5118525;28;20197;-72
2021/03/14 12:25:53;;;;;;;3.97;1.60;;;;;;;;;;5116479;28;20715;-73
2021/03/14 12:28:20;;;;;;;5.20;2.17;;;;;;;;;;5118055;28;20240;-72
2021/03/14 12:30:48;;;;;;;6.20;2.40;;;;;;;;;;5115712;28;20571;-72
2021/03/14 12:33:15;;;;;;;8.07;1.50;;;;;;;;;;5113461;28;20252;-72
2021/03/14 12:35:42;;;;;;;6.70;1.40;;;;;;;;;;5110729;28;20245;-73
2021/03/14 12:38:09;;;;;;;7.80;1.60;;;;;;;;;;5097706;28;20259;-72
2021/03/14 12:40:37;;;;;;;3.10;1.73;;;;;;;;;;5110528;28;20279;-72
2021/03/14 12:43:04;;;;;;;6.93;2.03;;;;;;;;;;5111560;28;20276;-73
2021/03/14 12:45:31;;;;;;;4.77;1.47;;;;;;;;;;5100631;28;20719;-73
2021/03/14 12:47:59;;;;;;;5.17;1.30;;;;;;;;;;5111039;28;20232;-73
2021/03/14 12:50:26;;;;;;;3.23;1.33;;;;;;;;;;5097698;28;20265;-73
2021/03/14 12:52:53;;;;;;;5.27;1.67;;;;;;;;;;5114071;28;20251;-73
2021/03/14 12:55:21;;;;;;;6.90;1.37;;;;;;;;;;5105277;28;20253;-73
2021/03/14 12:57:49;;;;;;;7.40;1.50;;;;;;;;;;5100594;28;20205;-73
2021/03/14 13:00:16;;;;;;;5.37;1.30;;;;;;;;;;5108305;28;20205;-74
2021/03/14 13:02:44;;;;;;;3.63;1.53;;;;;;;;;;5113939;28;20201;-73
2021/03/14 13:05:12;;;;;;;6.33;1.63;;;;;;;;;;5118757;28;20223;-73
2021/03/14 13:07:39;;;;;;;3.00;1.13;;;;;;;;;;5121137;28;20644;-73
2021/03/14 13:10:08;;;;;;;4.90;1.20;;;;;;;;;;5122045;28;20200;-73
2021/03/14 13:12:39;;;;;;;4.63;1.13;;;;;;;;;;5120749;28;20246;-73
2021/03/14 13:15:16;;;;;;;2.67;1.00;;;;;;;;;;5121037;28;20223;-73
2021/03/14 13:17:44;;;;;;;4.33;1.33;;;;;;;;;;5117219;28;20210;-73
2021/03/14 13:20:13;;;;;;;4.80;1.23;;;;;;;;;;5116623;28;20633;-73
2021/03/14 13:22:45;;;;;;;4.20;1.30;;;;;;;;;;5120361;28;20212;-73
2021/03/14 13:25:13;;;;;;;4.33;1.20;;;;;;;;;;5121776;27;20595;-73
2021/03/14 13:27:47;;;;;;;7.47;1.67;;;;;;;;;;5116609;28;20271;-74
2021/03/14 13:30:17;;;;;;;3.93;1.33;;;;;;;;;;5121064;28;20287;-73
2021/03/14 13:32:44;;;;;;;5.13;1.23;;;;;;;;;;5120945;28;20239;-74
2021/03/14 13:35:12;;;;;;;3.67;1.10;;;;;;;;;;5110275;28;20217;-74
2021/03/14 13:37:48;;;;;;;4.37;1.30;;;;;;;;;;5121520;28;20205;-73
2021/03/14 13:40:18;;;;;;;5.70;1.43;;;;;;;;;;5120690;27;20228;-73
2021/03/14 13:42:46;;;;;;;4.17;1.23;;;;;;;;;;5119915;28;20566;-73
2021/03/14 13:45:13;;;;;;;2.77;1.10;;;;;;;;;;5120279;27;20312;-74
2021/03/14 13:47:42;;;;;;;6.77;1.23;;;;;;;;;;5120342;28;20283;-73
2021/03/14 13:50:10;;;;;;;5.90;1.40;;;;;;;;;;5120380;28;20220;-73
2021/03/14 13:52:37;;;;;;;3.33;1.40;;;;;;;;;;5120309;28;20342;-73
2021/03/14 13:55:05;;;;;;;2.27;1.20;;;;;;;;;;5119018;28;20307;-73
2021/03/14 13:57:33;;;;;;;3.07;1.37;;;;;;;;;;5116755;28;20216;-73
2021/03/14 14:00:00;;;;;;;2.40;1.10;;;;;;;;;;5113909;28;20201;-73
2021/03/14 14:02:27;;;;;;;5.23;1.23;;;;;;;;;;5120944;28;20197;-73
2021/03/14 14:04:56;;;;;;;4.70;1.27;;;;;;;;;;5119734;28;20227;-73
2021/03/14 14:07:24;;;;;;;4.83;1.20;;;;;;;;;;5120957;28;20205;-73
2021/03/14 14:09:53;;;;;;;3.60;1.00;;;;;;;;;;5120246;28;20196;-72
2021/03/14 14:12:20;;;;;;;1.97;1.13;;;;;;;;;;5120560;28;20316;-72
2021/03/14 14:14:48;;;;;;;4.33;0.83;;;;;;;;;;5118492;28;20351;-72
2021/03/14 14:17:15;;;;;;;1.80;1.13;;;;;;;;;;5119046;28;20197;-72
2021/03/14 14:19:43;;;;;;;8.33;1.60;;;;;;;;;;5118903;28;20207;-72
2021/03/14 14:22:12;;;;;;;6.87;1.70;;;;;;;;;;5119468;28;20207;-73
2021/03/14 14:24:39;;;;;;;7.07;1.70;;;;;;;;;;5104317;28;20312;-72
2021/03/14 14:27:09;;;;;;;5.53;1.20;;;;;;;;;;5108957;28;20212;-74
2021/03/14 14:29:37;;;;;;;5.27;1.70;;;;;;;;;;5105990;28;20288;-72
2021/03/14 14:32:05;;;;;;;3.23;1.60;;;;;;;;;;5120680;28;20205;-73
2021/03/14 14:34:34;;;;;;;4.77;1.40;;;;;;;;;;5113129;28;20307;-72
2021/03/14 14:37:01;;;;;;;1.87;1.03;;;;;;;;;;5111190;28;20250;-72
2021/03/14 14:39:30;;;;;;;6.83;1.50;;;;;;;;;;5120455;28;20292;-73
2021/03/14 14:41:57;;;;;;;8.77;1.93;;;;;;;;;;5118282;28;20232;-72
2021/03/14 14:44:24;;;;;;;6.13;1.30;;;;;;;;;;5099757;28;20289;-72
2021/03/14 14:46:52;;;;;;;8.17;1.57;;;;;;;;;;5117661;28;20254;-73
2021/03/14 14:49:20;;;;;;;6.07;1.53;;;;;;;;;;5120008;28;20204;-73
2021/03/14 14:51:47;;;;;;;6.63;1.77;;;;;;;;;;5119058;28;20197;-73
2021/03/14 14:54:14;;;;;;;4.13;1.27;;;;;;;;;;5119332;28;20220;-73